createdAt,value
2023-04-10T00:00:15.585Z,17.67
2023-04-10T00:02:44.939Z,17.93
2023-04-10T00:05:15.289Z,20.93
2023-04-10T00:07:43.529Z,18.87
2023-04-10T00:10:14.401Z,20.87
2023-04-10T00:12:43.391Z,22.80
2023-04-10T00:15:12.025Z,23.10
2023-04-10T00:17:43.407Z,20.17
2023-04-10T00:20:15.398Z,20.27
2023-04-10T00:22:44.415Z,19.13
2023-04-10T00:25:13.899Z,19.87
2023-04-10T00:27:43.419Z,18.80
2023-04-10T00:30:12.400Z,19.13
2023-04-10T00:32:40.585Z,19.30
2023-04-10T00:35:11.420Z,21.70
2023-04-10T00:37:39.896Z,22.40
2023-04-10T00:40:10.374Z,18.60
2023-04-10T00:42:39.946Z,19.50
2023-04-10T00:45:09.354Z,19.20
2023-04-10T00:47:39.441Z,18.50
2023-04-10T00:50:08.458Z,17.67
2023-04-10T00:52:36.805Z,18.23
2023-04-10T00:55:07.408Z,18.40
2023-04-10T00:57:37.279Z,19.07
2023-04-10T01:00:08.166Z,19.17
2023-04-10T01:02:36.623Z,18.63
2023-04-10T01:05:05.272Z,17.37
2023-04-10T01:07:50.696Z,18.47
2023-04-10T01:10:31.408Z,18.20
2023-04-10T01:13:08.479Z,17.87
2023-04-10T01:15:45.089Z,17.60
2023-04-10T01:18:17.912Z,17.40
2023-04-10T01:20:49.290Z,16.93
2023-04-10T01:23:36.123Z,17.47
2023-04-10T01:26:08.441Z,17.80
2023-04-10T01:29:01.626Z,16.53
2023-04-10T01:31:39.412Z,17.10
2023-04-10T01:34:11.535Z,16.90
2023-04-10T01:36:47.183Z,17.50
2023-04-10T01:39:20.011Z,18.33
2023-04-10T01:41:52.149Z,18.70
2023-04-10T01:44:29.442Z,18.13
2023-04-10T01:47:01.547Z,17.60
2023-04-10T01:49:32.473Z,18.23
2023-04-10T01:52:04.463Z,18.43
2023-04-10T01:54:35.447Z,16.20
2023-04-10T01:57:06.448Z,17.87
2023-04-10T01:59:44.473Z,17.93
2023-04-10T02:02:12.934Z,17.40
2023-04-10T02:04:41.231Z,18.03
2023-04-10T02:07:17.210Z,19.07
2023-04-10T02:09:52.072Z,20.80
2023-04-10T02:12:28.449Z,20.60
2023-04-10T02:15:02.624Z,19.93
2023-04-10T02:17:33.471Z,19.43
2023-04-10T02:20:02.504Z,20.13
2023-04-10T02:22:31.718Z,19.73
2023-04-10T02:25:00.600Z,19.00
2023-04-10T02:27:30.278Z,20.23
2023-04-10T02:30:03.470Z,20.00
2023-04-10T02:32:34.030Z,20.37
2023-04-10T02:35:03.063Z,19.20
2023-04-10T02:37:33.462Z,19.80
2023-04-10T02:40:03.907Z,19.03
2023-04-10T02:42:41.470Z,20.30
2023-04-10T02:45:11.840Z,21.10
2023-04-10T02:47:44.482Z,20.27
2023-04-10T02:50:13.030Z,21.00
2023-04-10T02:52:45.311Z,21.20
2023-04-10T02:55:14.455Z,20.10
2023-04-10T02:57:44.290Z,19.70
2023-04-10T03:00:15.460Z,19.07
2023-04-10T03:03:09.794Z,18.97
2023-04-10T03:05:50.478Z,18.50
2023-04-10T03:08:24.453Z,20.13
2023-04-10T03:10:52.667Z,19.53
2023-04-10T03:13:20.808Z,20.13
2023-04-10T03:15:50.540Z,20.93
2023-04-10T03:18:25.354Z,19.33
2023-04-10T03:20:56.467Z,19.63
2023-04-10T03:23:24.602Z,19.40
2023-04-10T03:25:53.900Z,19.40
2023-04-10T03:28:26.480Z,18.93
2023-04-10T03:30:56.968Z,19.60
2023-04-10T03:33:25.558Z,18.67
2023-04-10T03:35:54.529Z,19.50
2023-04-10T03:38:22.620Z,19.63
2023-04-10T03:40:50.813Z,17.97
2023-04-10T03:43:21.428Z,18.27
2023-04-10T03:45:50.770Z,16.53
2023-04-10T03:48:20.446Z,17.53
2023-04-10T03:50:49.493Z,17.20
2023-04-10T03:53:42.793Z,17.17
2023-04-10T03:56:15.974Z,17.03
2023-04-10T03:58:47.216Z,17.03
2023-04-10T04:01:16.506Z,16.40
2023-04-10T04:04:14.954Z,16.77
2023-04-10T04:07:15.375Z,16.60
2023-04-10T04:10:00.446Z,16.50
2023-04-10T04:12:49.282Z,16.43
2023-04-10T04:15:37.485Z,16.03
2023-04-10T04:18:25.997Z,16.43
2023-04-10T04:21:12.454Z,16.93
2023-04-10T04:23:59.254Z,18.47
2023-04-10T04:26:51.742Z,18.53
2023-04-10T04:29:40.185Z,17.50
2023-04-10T04:32:25.517Z,17.37
2023-04-10T04:35:12.486Z,18.67
2023-04-10T04:37:54.142Z,17.63
2023-04-10T04:40:25.198Z,16.30
2023-04-10T04:42:59.084Z,17.40
2023-04-10T04:45:57.516Z,17.13
2023-04-10T04:48:41.313Z,17.20
2023-04-10T04:51:33.434Z,16.80
2023-04-10T04:54:13.318Z,16.87
2023-04-10T04:56:43.542Z,16.40
2023-04-10T04:59:11.651Z,16.43
2023-04-10T05:01:59.630Z,16.27
2023-04-10T05:04:43.145Z,15.83
2023-04-10T05:07:33.250Z,16.80
2023-04-10T05:10:18.149Z,17.47
2023-04-10T05:13:22.509Z,17.97
2023-04-10T05:16:16.979Z,17.40
2023-04-10T05:19:12.793Z,18.43
2023-04-10T05:22:18.091Z,17.80
2023-04-10T05:25:28.498Z,17.73
2023-04-10T05:28:14.854Z,17.87
2023-04-10T05:31:10.576Z,18.90
2023-04-10T05:33:57.351Z,18.13
2023-04-10T05:36:32.816Z,17.13
2023-04-10T05:39:20.430Z,17.03
2023-04-10T05:42:05.479Z,17.23
2023-04-10T05:45:16.447Z,16.63
2023-04-10T05:48:00.751Z,16.87
2023-04-10T05:50:39.436Z,16.73
2023-04-10T05:53:36.658Z,17.10
2023-04-10T05:56:21.129Z,17.47
2023-04-10T05:59:02.617Z,17.27
2023-04-10T06:01:57.438Z,16.03
2023-04-10T06:04:26.064Z,15.87
2023-04-10T06:06:58.343Z,15.43
2023-04-10T06:09:26.763Z,14.57
2023-04-10T06:11:57.665Z,14.57
2023-04-10T06:14:28.812Z,13.70
2023-04-10T06:17:03.449Z,13.60
2023-04-10T06:19:33.398Z,13.03
2023-04-10T06:22:01.613Z,13.87
2023-04-10T06:24:31.545Z,13.60
2023-04-10T06:26:59.832Z,14.23
2023-04-10T06:29:29.363Z,13.93
2023-04-10T06:32:01.376Z,12.97
2023-04-10T06:34:32.537Z,12.87
2023-04-10T06:37:05.434Z,12.80
2023-04-10T06:39:37.971Z,12.17
2023-04-10T06:42:06.308Z,12.73
2023-04-10T06:44:45.497Z,12.07
2023-04-10T06:47:13.791Z,12.57
2023-04-10T06:49:41.910Z,13.30
2023-04-10T06:52:11.391Z,13.60
2023-04-10T06:54:45.413Z,13.67
2023-04-10T06:57:13.589Z,14.23
2023-04-10T06:59:41.628Z,14.03
2023-04-10T07:02:12.543Z,13.40
2023-04-10T07:04:40.763Z,13.33
2023-04-10T07:07:10.047Z,14.10
2023-04-10T07:09:40.602Z,12.93
2023-04-10T07:12:08.978Z,13.13
2023-04-10T07:14:37.174Z,12.47
2023-04-10T07:17:05.604Z,11.67
2023-04-10T07:19:35.104Z,11.87
2023-04-10T07:22:03.193Z,11.33
2023-04-10T07:24:32.555Z,10.53
2023-04-10T07:27:02.591Z,14.50
2023-04-10T07:29:31.234Z,14.47
2023-04-10T07:31:59.638Z,11.07
2023-04-10T07:34:29.574Z,10.10
2023-04-10T07:36:59.069Z,10.63
2023-04-10T07:39:31.679Z,10.20
2023-04-10T07:41:59.829Z,9.83
2023-04-10T07:44:28.807Z,9.60
2023-04-10T07:46:56.939Z,9.83
2023-04-10T07:49:25.034Z,9.43
2023-04-10T07:51:58.046Z,8.80
2023-04-10T07:54:27.745Z,9.33
2023-04-10T07:56:55.945Z,9.33
2023-04-10T07:59:24.171Z,9.00
2023-04-10T08:01:52.297Z,8.90
2023-04-10T08:04:22.599Z,9.50
2023-04-10T08:06:51.621Z,8.37
2023-04-10T08:09:19.791Z,8.43
2023-04-10T08:11:49.294Z,9.03
2023-04-10T08:14:18.770Z,9.47
2023-04-10T08:16:47.679Z,13.83
2023-04-10T08:19:15.822Z,11.80
2023-04-10T08:21:44.610Z,9.23
2023-04-10T08:24:12.831Z,8.03
2023-04-10T08:26:40.941Z,8.07
2023-04-10T08:29:10.626Z,8.43
2023-04-10T08:31:38.786Z,8.20
2023-04-10T08:34:07.519Z,8.40
2023-04-10T08:36:38.058Z,8.30
2023-04-10T08:39:06.613Z,7.13
2023-04-10T08:41:34.968Z,8.10
2023-04-10T08:44:06.030Z,7.73
2023-04-10T08:46:38.273Z,7.90
2023-04-10T08:49:07.633Z,7.73
2023-04-10T08:51:40.619Z,6.57
2023-04-10T08:54:11.941Z,5.63
2023-04-10T08:56:43.440Z,5.37
2023-04-10T08:59:11.688Z,5.97
2023-04-10T09:01:42.704Z,5.43
2023-04-10T09:04:15.620Z,6.47
2023-04-10T09:06:44.614Z,6.20
2023-04-10T09:09:14.638Z,6.23
2023-04-10T09:12:01.323Z,5.30
2023-04-10T09:14:32.000Z,5.10
2023-04-10T09:17:20.456Z,5.40
2023-04-10T09:19:50.384Z,4.53
2023-04-10T09:22:18.533Z,4.57
2023-04-10T09:24:49.241Z,4.70
2023-04-10T09:27:32.417Z,4.53
2023-04-10T09:30:02.161Z,4.60
2023-04-10T09:32:43.108Z,4.80
2023-04-10T09:35:13.693Z,4.07
2023-04-10T09:37:43.307Z,3.30
2023-04-10T09:40:21.935Z,3.30
2023-04-10T09:42:50.338Z,3.50
2023-04-10T09:45:20.172Z,3.30
2023-04-10T09:48:04.772Z,3.50
2023-04-10T09:50:39.613Z,3.47
2023-04-10T09:53:09.683Z,3.80
2023-04-10T09:55:38.778Z,3.30
2023-04-10T09:58:07.726Z,3.17
2023-04-10T10:00:43.718Z,3.10
2023-04-10T10:03:15.059Z,3.43
2023-04-10T10:05:51.209Z,3.17
2023-04-10T10:08:19.699Z,3.80
2023-04-10T10:10:50.099Z,3.60
2023-04-10T10:13:25.669Z,3.80
2023-04-10T10:16:01.194Z,3.80
2023-04-10T10:18:40.362Z,4.00
2023-04-10T10:21:11.684Z,3.75
2023-04-10T10:23:43.401Z,3.42
2023-04-10T10:26:12.688Z,3.20
2023-04-10T10:28:42.176Z,3.67
2023-04-10T10:31:12.274Z,3.10
2023-04-10T10:33:43.527Z,3.10
2023-04-10T10:36:14.031Z,2.97
2023-04-10T10:38:51.414Z,2.92
2023-04-10T10:41:26.623Z,2.28
2023-04-10T10:44:03.289Z,2.17
2023-04-10T10:46:38.298Z,2.17
2023-04-10T10:49:08.070Z,2.30
2023-04-10T10:51:46.735Z,2.28
2023-04-10T10:54:33.706Z,2.13
2023-04-10T10:57:02.992Z,2.20
2023-04-10T10:59:57.324Z,2.13
2023-04-10T11:02:25.720Z,2.35
2023-04-10T11:04:55.979Z,2.35
2023-04-10T11:07:56.853Z,2.15
2023-04-10T11:10:58.989Z,2.22
2023-04-10T11:13:27.498Z,2.10
2023-04-10T11:15:57.595Z,2.25
2023-04-10T11:19:12.925Z,2.38
2023-04-10T11:22:07.601Z,2.80
2023-04-10T11:24:59.852Z,2.40
2023-04-10T11:27:46.307Z,2.45
2023-04-10T11:30:37.760Z,2.50
2023-04-10T11:33:06.900Z,2.70
2023-04-10T11:35:35.782Z,2.80
2023-04-10T11:38:16.753Z,2.63
2023-04-10T11:40:58.969Z,2.80
2023-04-10T11:43:27.698Z,2.40
2023-04-10T11:46:08.203Z,2.53
2023-04-10T11:48:38.740Z,2.53
2023-04-10T11:51:15.605Z,2.33
2023-04-10T11:53:46.705Z,2.50
2023-04-10T11:56:19.762Z,2.20
2023-04-10T11:58:51.014Z,2.75
2023-04-10T12:01:26.238Z,2.20
2023-04-10T12:03:54.703Z,2.80
2023-04-10T12:06:23.751Z,2.50
2023-04-10T12:08:53.769Z,2.83
2023-04-10T12:11:23.972Z,2.25
2023-04-10T12:13:54.347Z,25.33
2023-04-10T12:16:23.575Z,3.38
2023-04-10T12:18:53.364Z,2.60
2023-04-10T12:21:22.763Z,2.67
2023-04-10T12:23:53.755Z,2.40
2023-04-10T12:26:22.751Z,2.20
2023-04-10T12:28:53.885Z,2.28
2023-04-10T12:31:29.286Z,2.60
2023-04-10T12:33:59.323Z,2.53
2023-04-10T12:36:30.096Z,2.30
2023-04-10T12:39:01.763Z,2.75
2023-04-10T12:41:32.283Z,2.58
2023-04-10T12:44:11.447Z,3.20
2023-04-10T12:46:44.511Z,2.67
2023-04-10T12:49:14.663Z,2.00
2023-04-10T12:51:43.800Z,2.47
2023-04-10T12:54:30.678Z,2.20
2023-04-10T12:57:03.910Z,2.22
2023-04-10T12:59:32.748Z,2.20
2023-04-10T13:02:01.218Z,2.42
2023-04-10T13:04:31.423Z,2.30
2023-04-10T13:06:59.618Z,2.40
2023-04-10T13:09:28.991Z,2.80
2023-04-10T13:11:58.566Z,3.28
2023-04-10T13:14:27.173Z,2.55
2023-04-10T13:16:55.348Z,2.20
2023-04-10T13:19:27.426Z,2.28
2023-04-10T13:21:55.731Z,2.15
2023-04-10T13:24:24.341Z,2.20
2023-04-10T13:26:53.863Z,2.45
2023-04-10T13:29:26.123Z,2.13
2023-04-10T13:31:55.538Z,2.60
2023-04-10T13:34:23.759Z,2.30
2023-04-10T13:36:52.964Z,2.22
2023-04-10T13:39:21.796Z,2.20
2023-04-10T13:41:54.125Z,2.10
2023-04-10T13:44:23.592Z,1.98
2023-04-10T13:46:53.049Z,1.70
2023-04-10T13:49:22.345Z,1.90
2023-04-10T13:51:50.625Z,2.53
2023-04-10T13:54:22.374Z,2.25
2023-04-10T13:56:50.602Z,2.05
2023-04-10T13:59:18.816Z,13.48
2023-04-10T14:01:51.527Z,4.53
2023-04-10T14:04:19.791Z,2.30
2023-04-10T14:06:53.231Z,2.08
2023-04-10T14:09:21.443Z,2.20
2023-04-10T14:11:49.519Z,2.33
2023-04-10T14:14:17.745Z,2.30
2023-04-10T14:16:45.915Z,2.40
2023-04-10T14:19:15.465Z,2.50
2023-04-10T14:21:45.041Z,2.50
2023-04-10T14:24:15.802Z,3.28
2023-04-10T14:26:44.856Z,2.78
2023-04-10T14:29:14.780Z,2.45
2023-04-10T14:31:56.639Z,2.47
2023-04-10T14:34:27.367Z,2.17
2023-04-10T14:36:56.020Z,2.80
2023-04-10T14:39:25.479Z,2.53
2023-04-10T14:41:53.706Z,3.15
2023-04-10T14:44:22.517Z,3.10
2023-04-10T14:46:50.703Z,3.10
2023-04-10T14:49:18.795Z,2.80
2023-04-10T14:51:54.336Z,2.75
2023-04-10T14:54:24.077Z,3.25
2023-04-10T14:56:52.321Z,3.67
2023-04-10T14:59:20.488Z,3.33
2023-04-10T15:01:50.609Z,3.50
2023-04-10T15:04:18.813Z,3.22
2023-04-10T15:06:47.157Z,3.15
2023-04-10T15:09:17.193Z,3.70
2023-04-10T15:11:45.389Z,3.17
2023-04-10T15:14:13.731Z,3.10
2023-04-10T15:16:45.880Z,3.47
2023-04-10T15:19:13.989Z,2.90
2023-04-10T15:21:42.306Z,2.95
2023-04-10T15:24:11.270Z,2.78
2023-04-10T15:26:46.245Z,2.85
2023-04-10T15:29:14.751Z,2.70
2023-04-10T15:31:42.872Z,2.97
2023-04-10T15:34:10.959Z,2.58
2023-04-10T15:36:39.581Z,2.88
2023-04-10T15:39:08.592Z,2.90
2023-04-10T15:41:36.825Z,3.08
2023-04-10T15:44:06.531Z,3.38
2023-04-10T15:46:34.847Z,3.50
2023-04-10T15:49:02.966Z,3.60
2023-04-10T15:51:33.866Z,3.65
2023-04-10T15:54:04.599Z,3.78
2023-04-10T15:56:33.901Z,10.10
2023-04-10T15:59:02.071Z,4.43
2023-04-10T16:01:31.551Z,3.30
2023-04-10T16:04:00.116Z,3.30
2023-04-10T16:06:29.158Z,2.80
2023-04-10T16:08:57.334Z,2.40
2023-04-10T16:11:25.666Z,2.25
2023-04-10T16:13:57.374Z,2.30
2023-04-10T16:16:25.871Z,2.42
2023-04-10T16:18:55.443Z,2.40
2023-04-10T16:21:23.600Z,2.28
2023-04-10T16:23:51.860Z,2.30
2023-04-10T16:26:20.240Z,2.20
2023-04-10T16:28:48.339Z,2.28
2023-04-10T16:31:18.529Z,2.33
2023-04-10T16:33:46.632Z,2.38
2023-04-10T16:36:16.114Z,2.90
2023-04-10T16:38:44.637Z,2.80
2023-04-10T16:41:12.946Z,3.00
2023-04-10T16:43:41.038Z,3.00
2023-04-10T16:46:09.310Z,2.63
2023-04-10T16:48:37.523Z,2.75
2023-04-10T16:51:07.007Z,2.70
2023-04-10T16:53:37.007Z,3.00
2023-04-10T16:56:08.332Z,2.90
2023-04-10T16:58:37.245Z,2.67
2023-04-10T17:01:16.377Z,2.42
2023-04-10T17:03:44.600Z,3.00
2023-04-10T17:06:12.927Z,3.30
2023-04-10T17:08:43.942Z,3.20
2023-04-10T17:11:12.952Z,3.73
2023-04-10T17:13:41.167Z,3.70
2023-04-10T17:16:10.168Z,3.63
2023-04-10T17:18:38.608Z,3.60
2023-04-10T17:21:11.181Z,3.07
2023-04-10T17:23:39.405Z,3.87
2023-04-10T17:26:18.534Z,3.17
2023-04-10T17:28:46.920Z,4.80
2023-04-10T17:31:15.644Z,5.23
2023-04-10T17:33:43.963Z,4.63
2023-04-10T17:36:13.484Z,26.83
2023-04-10T17:38:42.464Z,17.70
2023-04-10T17:41:15.709Z,13.53
2023-04-10T17:43:44.145Z,13.17
2023-04-10T17:46:14.795Z,9.40
2023-04-10T17:48:44.862Z,8.87
2023-04-10T17:51:13.024Z,7.23
2023-04-10T17:53:41.305Z,6.50
2023-04-10T17:56:09.757Z,5.57
2023-04-10T17:58:39.391Z,12.00
2023-04-10T18:01:08.026Z,17.00
2023-04-10T18:03:36.310Z,43.13
2023-04-10T18:06:04.679Z,43.20
2023-04-10T18:08:34.874Z,26.83
2023-04-10T18:11:02.986Z,19.67
2023-04-10T18:13:31.081Z,16.40
2023-04-10T18:16:02.366Z,16.20
2023-04-10T18:18:30.561Z,17.30
2023-04-10T18:20:58.610Z,15.67
2023-04-10T18:23:30.304Z,13.80
2023-04-10T18:25:58.616Z,21.17
2023-04-10T18:28:27.735Z,17.23
2023-04-10T18:30:56.857Z,13.13
2023-04-10T18:33:27.592Z,13.50
2023-04-10T18:35:58.606Z,14.07
2023-04-10T18:38:27.658Z,13.73
2023-04-10T18:40:57.250Z,12.60
2023-04-10T18:43:27.498Z,13.33
2023-04-10T18:45:55.944Z,14.67
2023-04-10T18:48:24.280Z,10.93
2023-04-10T18:50:54.283Z,10.90
2023-04-10T18:53:23.033Z,9.27
2023-04-10T18:55:52.610Z,65.80
2023-04-10T18:58:21.727Z,37.87
2023-04-10T19:00:50.096Z,18.47
2023-04-10T19:03:22.088Z,12.87
2023-04-10T19:05:50.705Z,12.83
2023-04-10T19:08:20.303Z,11.63
2023-04-10T19:10:50.695Z,11.50
2023-04-10T19:13:22.409Z,10.90
2023-04-10T19:15:51.257Z,10.80
2023-04-10T19:18:19.527Z,11.70
2023-04-10T19:20:50.675Z,10.57
2023-04-10T19:23:22.496Z,10.43
2023-04-10T19:25:53.420Z,9.93
2023-04-10T19:28:26.248Z,11.20
2023-04-10T19:30:54.637Z,9.60
2023-04-10T19:33:23.190Z,13.00
2023-04-10T19:35:51.884Z,19.93
2023-04-10T19:38:21.545Z,12.63
2023-04-10T19:40:50.407Z,10.53
2023-04-10T19:43:21.112Z,10.53
2023-04-10T19:45:49.171Z,10.03
2023-04-10T19:48:17.419Z,11.90
2023-04-10T19:50:45.708Z,9.67
2023-04-10T19:53:15.688Z,11.10
2023-04-10T19:55:47.026Z,10.23
2023-04-10T19:58:30.454Z,10.77
2023-04-10T20:01:05.056Z,10.50
2023-04-10T20:03:33.586Z,10.57
2023-04-10T20:06:10.569Z,11.97
2023-04-10T20:08:38.958Z,10.83
2023-04-10T20:11:09.586Z,10.27
2023-04-10T20:13:40.061Z,10.13
2023-04-10T20:16:09.140Z,9.17
2023-04-10T20:18:38.572Z,8.83
2023-04-10T20:21:07.987Z,9.40
2023-04-10T20:23:36.218Z,8.30
2023-04-10T20:26:04.775Z,10.20
2023-04-10T20:28:38.559Z,10.47
2023-04-10T20:31:07.458Z,12.50
2023-04-10T20:33:37.025Z,12.70
2023-04-10T20:36:05.814Z,22.00
2023-04-10T20:38:35.017Z,26.23
2023-04-10T20:41:03.272Z,20.20
2023-04-10T20:43:34.228Z,20.80
2023-04-10T20:46:05.687Z,20.83
2023-04-10T20:48:42.367Z,14.77
2023-04-10T20:51:10.697Z,15.93
2023-04-10T20:53:38.894Z,16.37
2023-04-10T20:56:07.459Z,17.20
2023-04-10T20:58:35.959Z,17.70
2023-04-10T21:01:10.378Z,66.00
2023-04-10T21:03:38.714Z,24.57
2023-04-10T21:06:08.742Z,23.23
2023-04-10T21:08:37.028Z,18.20
2023-04-10T21:11:05.170Z,18.60
2023-04-10T21:13:35.132Z,18.13
2023-04-10T21:16:07.788Z,18.43
2023-04-10T21:18:36.037Z,17.03
2023-04-10T21:21:04.122Z,18.43
2023-04-10T21:23:34.069Z,17.83
2023-04-10T21:26:02.579Z,17.50
2023-04-10T21:28:33.239Z,16.43
2023-04-10T21:31:02.088Z,16.93
2023-04-10T21:33:33.056Z,14.83
2023-04-10T21:36:01.180Z,13.53
2023-04-10T21:38:29.334Z,14.60
2023-04-10T21:41:01.708Z,14.60
2023-04-10T21:43:30.006Z,15.13
2023-04-10T21:45:58.206Z,14.80
2023-04-10T21:48:30.413Z,14.57
2023-04-10T21:51:04.160Z,13.50
2023-04-10T21:53:32.307Z,14.23
2023-04-10T21:56:01.087Z,15.20
2023-04-10T21:58:29.538Z,15.30
2023-04-10T22:00:57.724Z,15.83
2023-04-10T22:03:30.589Z,16.80
2023-04-10T22:06:01.366Z,16.90
2023-04-10T22:08:33.309Z,16.00
2023-04-10T22:11:01.441Z,17.50
2023-04-10T22:13:31.082Z,16.63
2023-04-10T22:16:02.551Z,16.50
2023-04-10T22:18:31.346Z,16.47
2023-04-10T22:21:06.406Z,16.40
2023-04-10T22:23:35.096Z,15.83
2023-04-10T22:26:03.247Z,15.80
2023-04-10T22:28:32.243Z,16.60
2023-04-10T22:31:04.287Z,16.67
2023-04-10T22:33:34.385Z,16.23
2023-04-10T22:36:03.969Z,16.20
2023-04-10T22:38:32.178Z,17.07
2023-04-10T22:41:00.269Z,17.43
2023-04-10T22:43:30.405Z,16.00
2023-04-10T22:45:58.988Z,16.77
2023-04-10T22:48:28.128Z,15.77
2023-04-10T22:50:56.271Z,19.07
2023-04-10T22:53:27.063Z,20.27
2023-04-10T22:55:58.260Z,18.93
2023-04-10T22:58:26.432Z,18.97
2023-04-10T23:00:54.490Z,19.90
2023-04-10T23:03:23.147Z,20.57
2023-04-10T23:05:51.693Z,26.93
2023-04-10T23:08:19.969Z,26.17
2023-04-10T23:10:50.087Z,28.63
2023-04-10T23:13:18.123Z,28.67
2023-04-10T23:15:51.174Z,30.80
2023-04-10T23:18:19.737Z,28.33
2023-04-10T23:20:49.122Z,29.17
2023-04-10T23:23:18.291Z,25.63
2023-04-10T23:25:48.092Z,25.77
2023-04-10T23:28:17.556Z,26.03
2023-04-10T23:30:46.399Z,25.30
2023-04-10T23:33:14.531Z,22.40
2023-04-10T23:35:42.718Z,23.83
2023-04-10T23:38:11.124Z,24.47
2023-04-10T23:40:39.196Z,23.47
2023-04-10T23:43:14.401Z,23.17
2023-04-10T23:45:44.109Z,22.77
2023-04-10T23:48:12.730Z,21.80
2023-04-10T23:50:40.956Z,23.00
2023-04-10T23:53:09.318Z,22.33
2023-04-10T23:55:37.997Z,21.97
2023-04-10T23:58:09.182Z,21.23
